createdAt,value
2018-06-23T00:00:44.672Z,88.64
2018-06-23T00:01:44.902Z,88.55
2018-06-23T00:02:45.127Z,88.64
2018-06-23T00:03:45.353Z,88.70
2018-06-23T00:04:45.580Z,89.17
2018-06-23T00:05:45.808Z,89.60
2018-06-23T00:06:46.035Z,88.98
2018-06-23T00:07:46.260Z,89.17
2018-06-23T00:08:46.489Z,89.12
2018-06-23T00:09:46.718Z,89.40
2018-06-23T00:10:46.945Z,89.94
2018-06-23T00:11:47.173Z,89.89
2018-06-23T00:12:47.400Z,89.69
2018-06-23T00:13:47.638Z,89.69
2018-06-23T00:14:47.865Z,88.84
2018-06-23T00:15:48.095Z,88.64
2018-06-23T00:16:48.331Z,88.64
2018-06-23T00:17:48.557Z,88.64
2018-06-23T00:18:48.763Z,88.93
2018-06-23T00:19:49.013Z,89.31
2018-06-23T00:20:49.237Z,89.17
2018-06-23T00:21:49.463Z,89.36
2018-06-23T00:22:49.687Z,89.26
2018-06-23T00:23:49.912Z,89.75
2018-06-23T00:24:50.144Z,89.84
2018-06-23T00:25:50.367Z,89.65
2018-06-23T00:26:50.593Z,89.84
2018-06-23T00:27:50.820Z,90.41
2018-06-23T00:28:51.046Z,90.41
2018-06-23T00:29:51.276Z,90.12
2018-06-23T00:30:51.500Z,89.84
2018-06-23T00:31:51.723Z,89.84
2018-06-23T00:32:51.951Z,90.22
2018-06-23T00:33:52.175Z,90.41
2018-06-23T00:34:52.401Z,90.12
2018-06-23T00:35:52.628Z,90.41
2018-06-23T00:36:52.926Z,90.75
2018-06-23T00:37:53.082Z,91.31
2018-06-23T00:38:53.313Z,91.13
2018-06-23T00:39:53.540Z,90.84
2018-06-23T00:40:53.768Z,90.94
2018-06-23T00:41:53.997Z,90.36
2018-06-23T00:42:54.227Z,90.36
2018-06-23T00:43:54.456Z,91.03
2018-06-23T00:44:54.678Z,91.13
2018-06-23T00:45:54.905Z,91.03
2018-06-23T00:46:55.129Z,90.89
2018-06-23T00:47:55.364Z,90.75
2018-06-23T00:48:55.591Z,90.94
2018-06-23T00:49:55.815Z,91.22
2018-06-23T00:50:56.047Z,91.22
2018-06-23T00:51:56.322Z,91.03
2018-06-23T00:52:56.501Z,90.84
2018-06-23T00:53:56.727Z,90.65
2018-06-23T00:54:56.954Z,91.22
2018-06-23T00:55:57.182Z,91.03
2018-06-23T00:56:57.405Z,91.13
2018-06-23T00:57:57.637Z,91.31
2018-06-23T00:58:57.864Z,91.41
2018-06-23T00:59:58.089Z,91.79
2018-06-23T01:00:58.314Z,91.74
2018-06-23T01:01:58.541Z,91.94
2018-06-23T01:02:58.768Z,91.55
2018-06-23T01:03:58.993Z,91.27
2018-06-23T01:04:59.239Z,91.36
2018-06-23T01:05:59.459Z,90.70
2018-06-23T01:06:59.673Z,91.17
2018-06-23T01:07:59.902Z,90.70
2018-06-23T01:09:00.131Z,90.22
2018-06-23T01:10:00.350Z,90.50
2018-06-23T01:11:00.579Z,90.31
2018-06-23T01:12:00.809Z,90.50
2018-06-23T01:13:01.032Z,89.84
2018-06-23T01:14:01.262Z,89.94
2018-06-23T01:15:01.488Z,90.03
2018-06-23T01:16:01.712Z,90.41
2018-06-23T01:17:01.937Z,90.41
2018-06-23T01:18:02.161Z,90.50
2018-06-23T01:19:02.388Z,90.64
2018-06-23T01:20:02.613Z,89.98
2018-06-23T01:21:02.833Z,89.89
2018-06-23T01:22:03.061Z,89.79
2018-06-23T01:23:03.284Z,89.69
2018-06-23T01:24:03.512Z,89.69
2018-06-23T01:25:03.745Z,90.08
2018-06-23T01:26:03.972Z,90.08
2018-06-23T01:27:04.203Z,89.69
2018-06-23T01:28:04.430Z,89.60
2018-06-23T01:29:04.658Z,90.08
2018-06-23T01:30:04.881Z,90.17
2018-06-23T01:31:05.109Z,89.89
2018-06-23T01:32:05.339Z,89.60
2018-06-23T01:33:05.566Z,89.22
2018-06-23T01:34:05.785Z,89.22
2018-06-23T01:35:06.013Z,89.03
2018-06-23T01:36:06.237Z,88.55
2018-06-23T01:37:07.087Z,88.40
2018-06-23T01:38:06.686Z,88.84
2018-06-23T01:39:06.906Z,88.98
2018-06-23T01:40:07.133Z,88.69
2018-06-23T01:41:07.365Z,88.59
2018-06-23T01:42:07.592Z,87.74
2018-06-23T01:43:07.819Z,88.21
2018-06-23T01:44:08.049Z,87.83
2018-06-23T01:45:08.279Z,88.21
2018-06-23T01:46:08.505Z,87.74
2018-06-23T01:47:08.730Z,87.26
2018-06-23T01:48:08.955Z,86.88
2018-06-23T01:49:09.183Z,86.69
2018-06-23T01:50:09.409Z,86.88
2018-06-23T01:51:09.634Z,86.78
2018-06-23T01:52:09.860Z,86.69
2018-06-23T01:53:10.090Z,86.69
2018-06-23T01:54:10.316Z,86.78
2018-06-23T01:55:10.550Z,87.54
2018-06-23T01:56:10.770Z,87.35
2018-06-23T01:57:10.995Z,87.40
2018-06-23T01:58:11.223Z,88.07
2018-06-23T01:59:11.449Z,88.12
2018-06-23T02:00:11.685Z,88.12
2018-06-23T02:01:11.900Z,88.02
2018-06-23T02:02:12.123Z,87.64
2018-06-23T02:03:12.354Z,87.88
2018-06-23T02:04:12.583Z,88.55
2018-06-23T02:05:12.805Z,88.93
2018-06-23T02:06:13.034Z,88.55
2018-06-23T02:07:13.261Z,88.55
2018-06-23T02:08:13.481Z,87.88
2018-06-23T02:09:13.711Z,87.60
2018-06-23T02:10:13.944Z,87.79
2018-06-23T02:11:14.162Z,87.88
2018-06-23T02:12:14.391Z,87.69
2018-06-23T02:13:14.618Z,87.60
2018-06-23T02:14:14.845Z,87.50
2018-06-23T02:15:15.073Z,87.50
2018-06-23T02:16:15.304Z,87.40
2018-06-23T02:17:15.529Z,87.12
2018-06-23T02:18:15.757Z,87.40
2018-06-23T02:19:15.985Z,88.17
2018-06-23T02:20:16.212Z,88.17
2018-06-23T02:21:16.444Z,87.88
2018-06-23T02:22:16.672Z,87.79
2018-06-23T02:23:16.900Z,87.45
2018-06-23T02:24:17.129Z,87.69
2018-06-23T02:25:17.353Z,87.69
2018-06-23T02:26:17.585Z,87.69
2018-06-23T02:27:17.810Z,87.88
2018-06-23T02:28:18.036Z,87.79
2018-06-23T02:29:18.264Z,88.45
2018-06-23T02:30:18.490Z,88.45
2018-06-23T02:31:18.717Z,87.98
2018-06-23T02:32:18.945Z,87.40
2018-06-23T02:33:19.167Z,87.40
2018-06-23T02:34:19.396Z,87.16
2018-06-23T02:35:19.624Z,87.21
2018-06-23T02:36:19.853Z,87.26
2018-06-23T02:37:20.076Z,87.45
2018-06-23T02:38:20.304Z,87.54
2018-06-23T02:39:20.530Z,87.50
2018-06-23T02:40:20.757Z,87.26
2018-06-23T02:41:20.979Z,87.26
2018-06-23T02:42:21.206Z,87.26
2018-06-23T02:43:21.433Z,87.16
2018-06-23T02:44:21.659Z,87.26
2018-06-23T02:45:21.888Z,87.16
2018-06-23T02:46:22.113Z,87.45
2018-06-23T02:47:22.339Z,87.45
2018-06-23T02:48:22.563Z,87.54
2018-06-23T02:49:22.785Z,87.45
2018-06-23T02:50:23.013Z,87.50
2018-06-23T02:51:23.241Z,88.36
2018-06-23T02:52:23.467Z,87.88
2018-06-23T02:53:23.695Z,87.79
2018-06-23T02:54:23.932Z,88.07
2018-06-23T02:55:24.146Z,88.50
2018-06-23T02:56:24.374Z,87.83
2018-06-23T02:57:24.607Z,87.60
2018-06-23T02:58:24.815Z,87.35
2018-06-23T02:59:25.061Z,87.74
2018-06-23T03:00:25.288Z,87.54
2018-06-23T03:01:25.517Z,87.26
2018-06-23T03:02:25.744Z,87.54
2018-06-23T03:03:25.974Z,87.45
2018-06-23T03:04:26.206Z,87.74
2018-06-23T03:05:26.434Z,87.83
2018-06-23T03:06:26.659Z,87.74
2018-06-23T03:07:26.882Z,86.88
2018-06-23T03:08:27.115Z,87.60
2018-06-23T03:09:27.346Z,87.93
2018-06-23T03:10:27.576Z,87.64
2018-06-23T03:11:27.804Z,87.16
2018-06-23T03:12:28.020Z,87.54
2018-06-23T03:13:28.255Z,86.88
2018-06-23T03:14:28.476Z,86.65
2018-06-23T03:15:28.698Z,87.35
2018-06-23T03:16:28.926Z,87.26
2018-06-23T03:17:29.156Z,87.74
2018-06-23T03:18:29.390Z,87.26
2018-06-23T03:19:29.614Z,87.45
2018-06-23T03:20:29.843Z,87.16
2018-06-23T03:21:30.072Z,86.69
2018-06-23T03:22:30.301Z,86.49
2018-06-23T03:23:30.521Z,86.88
2018-06-23T03:24:30.749Z,86.88
2018-06-23T03:25:30.976Z,86.88
2018-06-23T03:26:31.200Z,86.98
2018-06-23T03:27:31.425Z,86.49
2018-06-23T03:28:31.653Z,87.07
2018-06-23T03:29:31.882Z,87.83
2018-06-23T03:30:32.114Z,86.69
2018-06-23T03:31:32.330Z,86.78
2018-06-23T03:32:32.561Z,86.30
2018-06-23T03:33:32.788Z,86.30
2018-06-23T03:34:33.014Z,85.64
2018-06-23T03:35:33.239Z,85.45
2018-06-23T03:36:33.468Z,85.54
2018-06-23T03:37:33.697Z,85.73
2018-06-23T03:38:33.926Z,85.45
2018-06-23T03:39:34.158Z,85.54
2018-06-23T03:40:34.382Z,85.64
2018-06-23T03:41:34.608Z,85.73
2018-06-23T03:42:34.833Z,86.40
2018-06-23T03:43:35.066Z,86.11
2018-06-23T03:44:35.289Z,85.73
2018-06-23T03:45:35.515Z,85.54
2018-06-23T03:46:35.743Z,85.45
2018-06-23T03:47:35.967Z,85.73
2018-06-23T03:48:36.197Z,85.54
2018-06-23T03:49:36.430Z,85.54
2018-06-23T03:50:36.653Z,85.54
2018-06-23T03:51:36.881Z,85.06
2018-06-23T03:52:37.109Z,85.35
2018-06-23T03:53:37.337Z,85.64
2018-06-23T03:54:37.566Z,85.58
2018-06-23T03:55:37.791Z,84.82
2018-06-23T03:56:38.021Z,84.69
2018-06-23T03:57:38.250Z,84.63
2018-06-23T03:58:38.476Z,84.25
2018-06-23T03:59:38.703Z,84.34
2018-06-23T04:00:38.930Z,84.72
2018-06-23T04:01:39.160Z,84.34
2018-06-23T04:02:39.383Z,84.82
2018-06-23T04:03:39.616Z,84.53
2018-06-23T04:04:39.831Z,84.34
2018-06-23T04:05:40.065Z,84.25
2018-06-23T04:06:40.284Z,84.16
2018-06-23T04:07:40.511Z,83.29
2018-06-23T04:08:40.738Z,83.01
2018-06-23T04:09:40.965Z,83.58
2018-06-23T04:10:41.192Z,83.11
2018-06-23T04:11:41.422Z,82.15
2018-06-23T04:12:41.651Z,82.34
2018-06-23T04:13:41.880Z,82.38
2018-06-23T04:14:42.103Z,82.48
2018-06-23T04:15:42.330Z,82.63
2018-06-23T04:16:42.582Z,82.00
2018-06-23T04:17:42.787Z,82.19
2018-06-23T04:18:43.012Z,82.48
2018-06-23T04:19:43.239Z,81.90
2018-06-23T04:20:43.465Z,82.00
2018-06-23T04:21:43.694Z,82.00
2018-06-23T04:22:43.924Z,81.90
2018-06-23T04:23:44.147Z,82.09
2018-06-23T04:24:44.367Z,82.00
2018-06-23T04:25:44.597Z,82.00
2018-06-23T04:26:44.829Z,81.43
2018-06-23T04:27:45.052Z,81.24
2018-06-23T04:28:45.276Z,81.52
2018-06-23T04:29:45.504Z,81.66
2018-06-23T04:30:45.736Z,80.95
2018-06-23T04:31:45.965Z,81.37
2018-06-23T04:32:46.187Z,81.18
2018-06-23T04:33:46.414Z,81.09
2018-06-23T04:34:46.645Z,80.90
2018-06-23T04:35:46.863Z,80.13
2018-06-23T04:36:47.093Z,80.13
2018-06-23T04:37:47.320Z,80.13
2018-06-23T04:38:47.546Z,79.85
2018-06-23T04:39:47.775Z,79.46
2018-06-23T04:40:48.006Z,79.65
2018-06-23T04:41:48.235Z,79.65
2018-06-23T04:42:48.462Z,79.17
2018-06-23T04:43:48.694Z,79.56
2018-06-23T04:44:48.923Z,79.36
2018-06-23T04:45:49.152Z,79.12
2018-06-23T04:46:49.378Z,78.55
2018-06-23T04:47:49.608Z,78.36
2018-06-23T04:48:49.839Z,77.78
2018-06-23T04:49:50.062Z,77.50
2018-06-23T04:50:50.291Z,77.50
2018-06-23T04:51:50.516Z,77.50
2018-06-23T04:52:50.745Z,77.11
2018-06-23T04:53:50.978Z,77.11
2018-06-23T04:54:51.201Z,77.11
2018-06-23T04:55:51.429Z,77.30
2018-06-23T04:56:51.655Z,77.40
2018-06-23T04:57:51.883Z,77.21
2018-06-23T04:58:52.112Z,76.77
2018-06-23T04:59:52.338Z,76.48
2018-06-23T05:00:52.568Z,75.52
2018-06-23T05:01:52.793Z,75.62
2018-06-23T05:02:53.022Z,75.52
2018-06-23T05:03:53.255Z,76.57
2018-06-23T05:04:53.486Z,76.39
2018-06-23T05:05:53.713Z,75.62
2018-06-23T05:06:53.941Z,76.20
2018-06-23T05:07:54.166Z,75.81
2018-06-23T05:08:54.397Z,75.43
2018-06-23T05:09:54.622Z,75.47
2018-06-23T05:10:54.854Z,75.37
2018-06-23T05:11:55.081Z,75.27
2018-06-23T05:12:55.307Z,75.09
2018-06-23T05:13:55.540Z,75.27
2018-06-23T05:14:55.764Z,74.99
2018-06-23T05:15:55.996Z,74.99
2018-06-23T05:16:56.225Z,74.90
2018-06-23T05:17:56.450Z,75.09
2018-06-23T05:18:56.677Z,74.32
2018-06-23T05:19:56.906Z,73.94
2018-06-23T05:20:57.133Z,74.04
2018-06-23T05:21:57.363Z,73.94
2018-06-23T05:22:57.591Z,74.04
2018-06-23T05:23:57.821Z,74.51
2018-06-23T05:24:58.044Z,74.51
2018-06-23T05:25:58.284Z,74.99
2018-06-23T05:26:58.523Z,74.41
2018-06-23T05:27:58.744Z,74.51
2018-06-23T05:28:58.971Z,74.61
2018-06-23T05:29:59.201Z,74.13
2018-06-23T05:30:59.432Z,73.46
2018-06-23T05:31:59.650Z,73.79
2018-06-23T05:32:59.899Z,73.27
2018-06-23T05:34:00.129Z,73.21
2018-06-23T05:35:00.352Z,73.11
2018-06-23T05:36:00.583Z,73.59
2018-06-23T05:37:00.814Z,72.34
2018-06-23T05:38:01.039Z,71.71
2018-06-23T05:39:01.267Z,70.85
2018-06-23T05:40:01.511Z,70.76
2018-06-23T05:41:01.722Z,70.50
2018-06-23T05:42:01.951Z,69.35
2018-06-23T05:43:02.180Z,69.07
2018-06-23T05:44:02.421Z,68.97
2018-06-23T05:45:02.628Z,68.81
2018-06-23T05:46:02.851Z,68.33
2018-06-23T05:47:03.084Z,68.05
2018-06-23T05:48:03.317Z,67.76
2018-06-23T05:49:03.541Z,67.38
2018-06-23T05:50:03.775Z,67.18
2018-06-23T05:51:04.003Z,67.09
2018-06-23T05:52:04.230Z,66.71
2018-06-23T05:53:04.461Z,67.38
2018-06-23T05:54:04.688Z,67.47
2018-06-23T05:55:04.924Z,67.38
2018-06-23T05:56:05.146Z,66.64
2018-06-23T05:57:05.380Z,66.83
2018-06-23T05:58:05.607Z,67.02
2018-06-23T05:59:05.835Z,66.64
2018-06-23T06:00:06.060Z,66.93
2018-06-23T06:01:06.291Z,65.97
2018-06-23T06:02:06.527Z,66.83
2018-06-23T06:03:06.756Z,65.52
2018-06-23T06:04:06.985Z,65.08
2018-06-23T06:05:07.218Z,62.64
2018-06-23T06:06:07.444Z,61.46
2018-06-23T06:07:07.731Z,58.92
2018-06-23T06:08:07.907Z,56.73
2018-06-23T06:09:08.140Z,56.63
2018-06-23T06:10:08.362Z,55.67
2018-06-23T06:11:08.594Z,56.41
2018-06-23T06:12:08.828Z,56.90
2018-06-23T06:13:09.059Z,56.00
2018-06-23T06:14:09.300Z,55.33
2018-06-23T06:15:09.520Z,56.26
2018-06-23T06:16:09.746Z,55.30
2018-06-23T06:17:09.979Z,54.79
2018-06-23T06:18:10.213Z,56.14
2018-06-23T06:19:10.448Z,57.17
2018-06-23T06:20:10.677Z,56.56
2018-06-23T06:21:10.906Z,56.37
2018-06-23T06:22:11.135Z,56.27
2018-06-23T06:23:11.364Z,56.53
2018-06-23T06:24:11.598Z,56.89
2018-06-23T06:25:11.828Z,57.97
2018-06-23T06:26:12.060Z,58.55
2018-06-23T06:27:12.289Z,57.65
2018-06-23T06:28:12.523Z,57.56
2018-06-23T06:29:12.757Z,58.42
2018-06-23T06:30:12.986Z,59.77
2018-06-23T06:31:13.220Z,59.58
2018-06-23T06:32:13.451Z,60.15
2018-06-23T06:33:13.681Z,60.72
2018-06-23T06:34:13.909Z,60.82
2018-06-23T06:35:14.133Z,59.58
2018-06-23T06:36:14.371Z,59.38
2018-06-23T06:37:14.605Z,60.25
2018-06-23T06:38:14.837Z,60.31
2018-06-23T06:39:15.069Z,60.35
2018-06-23T06:40:15.301Z,61.02
2018-06-23T06:41:15.529Z,61.88
2018-06-23T06:42:15.760Z,61.49
2018-06-23T06:43:15.994Z,61.59
2018-06-23T06:44:16.233Z,60.92
2018-06-23T06:45:16.458Z,61.78
2018-06-23T06:46:16.690Z,60.92
2018-06-23T06:47:16.915Z,61.02
2018-06-23T06:48:17.143Z,60.03
2018-06-23T06:49:17.414Z,60.15
2018-06-23T06:50:17.622Z,59.55
2018-06-23T06:51:17.842Z,58.78
2018-06-23T06:52:18.071Z,58.81
2018-06-23T06:53:18.304Z,59.06
2018-06-23T06:54:18.536Z,60.25
2018-06-23T06:55:18.764Z,60.15
2018-06-23T06:56:18.994Z,59.96
2018-06-23T06:57:19.221Z,60.63
2018-06-23T06:58:19.452Z,60.72
2018-06-23T06:59:19.677Z,60.05
2018-06-23T07:00:19.907Z,59.09
2018-06-23T07:01:20.139Z,59.48
2018-06-23T07:02:20.365Z,59.00
2018-06-23T07:03:20.598Z,58.52
2018-06-23T07:04:20.827Z,58.23
2018-06-23T07:05:21.057Z,57.65
2018-06-23T07:06:21.287Z,58.52
2018-06-23T07:07:21.517Z,59.00
2018-06-23T07:08:21.749Z,59.19
2018-06-23T07:09:21.990Z,60.05
2018-06-23T07:10:22.204Z,59.96
2018-06-23T07:11:22.434Z,59.70
2018-06-23T07:12:22.664Z,59.80
2018-06-23T07:13:22.898Z,59.51
2018-06-23T07:14:23.126Z,59.61
2018-06-23T07:15:23.354Z,59.51
2018-06-23T07:16:23.585Z,59.61
2018-06-23T07:17:23.816Z,58.52
2018-06-23T07:18:24.044Z,59.51
2018-06-23T07:19:24.276Z,59.70
2018-06-23T07:20:24.508Z,59.99
2018-06-23T07:21:24.740Z,60.18
2018-06-23T07:22:24.971Z,60.08
2018-06-23T07:23:25.209Z,60.08
2018-06-23T07:24:25.431Z,59.32
2018-06-23T07:25:25.670Z,59.67
2018-06-23T07:26:25.894Z,60.05
2018-06-23T07:27:26.126Z,60.25
2018-06-23T07:28:26.356Z,60.15
2018-06-23T07:29:26.588Z,60.63
2018-06-23T07:30:26.818Z,60.79
2018-06-23T07:31:27.049Z,60.70
2018-06-23T07:32:27.284Z,61.37
2018-06-23T07:33:27.513Z,61.37
2018-06-23T07:34:27.833Z,61.37
2018-06-23T07:35:27.974Z,61.27
2018-06-23T07:36:28.202Z,61.75
2018-06-23T07:37:28.431Z,61.85
2018-06-23T07:38:28.665Z,61.94
2018-06-23T07:39:28.893Z,62.13
2018-06-23T07:40:29.124Z,62.49
2018-06-23T07:41:29.355Z,62.39
2018-06-23T07:42:29.582Z,63.06
2018-06-23T07:43:29.809Z,63.06
2018-06-23T07:44:30.038Z,62.68
2018-06-23T07:45:30.268Z,63.45
2018-06-23T07:46:30.552Z,62.96
2018-06-23T07:47:30.725Z,62.96
2018-06-23T07:48:30.957Z,62.96
2018-06-23T07:49:31.184Z,62.87
2018-06-23T07:50:31.415Z,62.77
2018-06-23T07:51:31.646Z,63.83
2018-06-23T07:52:31.874Z,63.35
2018-06-23T07:53:32.104Z,63.54
2018-06-23T07:54:32.337Z,64.12
2018-06-23T07:55:32.563Z,63.35
2018-06-23T07:56:32.793Z,63.73
2018-06-23T07:57:33.024Z,63.96
2018-06-23T07:58:33.248Z,64.02
2018-06-23T07:59:33.480Z,64.02
2018-06-23T08:00:33.699Z,64.12
2018-06-23T08:01:33.957Z,64.31
2018-06-23T08:02:34.158Z,64.31
2018-06-23T08:03:34.389Z,64.50
2018-06-23T08:04:34.617Z,64.69
2018-06-23T08:05:34.845Z,64.69
2018-06-23T08:06:35.105Z,63.92
2018-06-23T08:07:35.310Z,64.31
2018-06-23T08:08:35.544Z,64.59
2018-06-23T08:09:35.779Z,65.17
2018-06-23T08:10:36.015Z,64.98
2018-06-23T08:11:36.266Z,64.69
2018-06-23T08:12:36.483Z,64.98
2018-06-23T08:13:36.714Z,65.55
2018-06-23T08:14:36.948Z,64.89
2018-06-23T08:15:37.176Z,64.98
2018-06-23T08:16:37.408Z,64.89
2018-06-23T08:17:37.637Z,64.79
2018-06-23T08:18:37.922Z,64.50
2018-06-23T08:19:38.101Z,64.79
2018-06-23T08:20:38.328Z,63.83
2018-06-23T08:21:38.558Z,64.50
2018-06-23T08:22:38.788Z,64.59
2018-06-23T08:23:39.010Z,64.69
2018-06-23T08:24:39.243Z,64.79
2018-06-23T08:25:39.468Z,64.53
2018-06-23T08:26:39.909Z,63.38
2018-06-23T08:27:39.924Z,62.81
2018-06-23T08:28:40.156Z,62.68
2018-06-23T08:29:40.386Z,63.45
2018-06-23T08:30:40.621Z,62.87
2018-06-23T08:31:40.845Z,64.02
2018-06-23T08:32:41.071Z,63.73
2018-06-23T08:33:41.300Z,63.54
2018-06-23T08:34:41.530Z,63.54
2018-06-23T08:35:41.751Z,63.29
2018-06-23T08:36:41.980Z,63.00
2018-06-23T08:37:42.213Z,62.81
2018-06-23T08:38:42.440Z,62.81
2018-06-23T08:39:42.674Z,62.33
2018-06-23T08:40:42.901Z,62.52
2018-06-23T08:41:43.133Z,62.81
2018-06-23T08:42:43.365Z,62.81
2018-06-23T08:43:43.674Z,62.42
2018-06-23T08:44:43.822Z,62.62
2018-06-23T08:45:44.052Z,63.03
2018-06-23T08:46:44.283Z,62.45
2018-06-23T08:47:44.509Z,62.65
2018-06-23T08:48:44.736Z,62.93
2018-06-23T08:49:44.993Z,62.74
2018-06-23T08:50:45.222Z,62.26
2018-06-23T08:51:45.429Z,62.84
2018-06-23T08:52:45.637Z,62.62
2018-06-23T08:53:45.868Z,63.00
2018-06-23T08:54:46.097Z,63.57
2018-06-23T08:55:46.327Z,63.19
2018-06-23T08:56:46.592Z,63.29
2018-06-23T08:57:46.780Z,63.09
2018-06-23T08:58:47.007Z,63.00
2018-06-23T08:59:47.234Z,62.90
2018-06-23T09:00:47.477Z,63.00
2018-06-23T09:01:47.769Z,63.51
2018-06-23T09:02:47.949Z,63.42
2018-06-23T09:03:48.167Z,63.22
2018-06-23T09:04:48.395Z,62.93
2018-06-23T09:05:48.628Z,62.65
2018-06-23T09:06:48.852Z,62.74
2018-06-23T09:07:49.084Z,62.16
2018-06-23T09:08:49.315Z,62.07
2018-06-23T09:09:49.536Z,62.16
2018-06-23T09:10:49.753Z,63.03
2018-06-23T09:11:49.969Z,62.74
2018-06-23T09:12:50.193Z,63.03
2018-06-23T09:13:50.418Z,61.98
2018-06-23T09:14:50.643Z,62.65
2018-06-23T09:15:50.870Z,63.03
2018-06-23T09:16:51.162Z,62.74
2018-06-23T09:17:51.323Z,62.74
2018-06-23T09:18:51.545Z,62.84
2018-06-23T09:19:51.793Z,62.55
2018-06-23T09:20:52.018Z,62.84
2018-06-23T09:21:52.244Z,62.36
2018-06-23T09:22:52.472Z,62.26
2018-06-23T09:23:52.703Z,62.65
2018-06-23T09:24:52.932Z,62.55
2018-06-23T09:25:53.193Z,62.74
2018-06-23T09:26:53.396Z,62.45
2018-06-23T09:27:53.625Z,62.26
2018-06-23T09:28:53.871Z,62.16
2018-06-23T09:29:54.102Z,62.07
2018-06-23T09:30:54.332Z,62.45
2018-06-23T09:31:54.562Z,62.26
2018-06-23T09:32:54.809Z,62.45
2018-06-23T09:33:55.028Z,62.84
2018-06-23T09:34:55.249Z,62.84
2018-06-23T09:35:55.482Z,62.65
2018-06-23T09:36:55.713Z,62.74
2018-06-23T09:37:55.954Z,62.52
2018-06-23T09:38:56.167Z,62.74
2018-06-23T09:39:56.398Z,62.93
2018-06-23T09:40:56.632Z,62.93
2018-06-23T09:41:56.858Z,63.12
2018-06-23T09:42:57.088Z,63.42
2018-06-23T09:43:57.315Z,63.70
2018-06-23T09:44:57.547Z,63.51
2018-06-23T09:45:57.796Z,63.22
2018-06-23T09:46:58.004Z,63.32
2018-06-23T09:47:58.232Z,63.09
2018-06-23T09:48:58.466Z,63.38
2018-06-23T09:49:58.691Z,63.67
2018-06-23T09:50:58.925Z,63.67
2018-06-23T09:51:59.155Z,63.67
2018-06-23T09:52:59.382Z,63.76
2018-06-23T09:53:59.613Z,64.05
2018-06-23T09:54:59.850Z,63.76
2018-06-23T09:56:00.166Z,64.25
2018-06-23T09:57:00.286Z,65.01
2018-06-23T09:58:00.537Z,64.82
2018-06-23T09:59:00.766Z,64.82
2018-06-23T10:00:00.992Z,65.49
2018-06-23T10:01:01.229Z,65.75
2018-06-23T10:02:01.445Z,65.88
2018-06-23T10:03:01.684Z,66.16
2018-06-23T10:04:01.909Z,65.49
2018-06-23T10:05:02.138Z,65.88
2018-06-23T10:06:02.365Z,67.18
2018-06-23T10:07:02.593Z,67.66
2018-06-23T10:08:02.811Z,67.99
2018-06-23T10:09:03.046Z,67.85
2018-06-23T10:10:03.282Z,67.18
2018-06-23T10:11:03.507Z,67.38
2018-06-23T10:12:03.739Z,67.85
2018-06-23T10:13:03.966Z,68.33
2018-06-23T10:14:04.194Z,68.43
2018-06-23T10:15:04.413Z,69.20
2018-06-23T10:16:04.657Z,69.01
2018-06-23T10:17:04.886Z,68.62
2018-06-23T10:18:05.130Z,68.52
2018-06-23T10:19:05.344Z,68.81
2018-06-23T10:20:05.572Z,69.20
2018-06-23T10:21:05.798Z,69.04
2018-06-23T10:22:06.028Z,69.13
2018-06-23T10:23:06.282Z,69.20
2018-06-23T10:24:06.503Z,69.81
2018-06-23T10:25:06.712Z,69.33
2018-06-23T10:26:06.943Z,69.13
2018-06-23T10:27:07.175Z,68.85
2018-06-23T10:28:07.413Z,68.85
2018-06-23T10:29:07.670Z,69.29
2018-06-23T10:30:07.879Z,69.01
2018-06-23T10:31:08.097Z,69.10
2018-06-23T10:32:08.330Z,68.91
2018-06-23T10:33:08.546Z,70.54
2018-06-23T10:34:08.760Z,70.44
2018-06-23T10:35:08.987Z,70.35
2018-06-23T10:36:09.241Z,70.35
2018-06-23T10:37:09.457Z,69.96
2018-06-23T10:38:09.670Z,70.35
2018-06-23T10:39:09.912Z,71.11
2018-06-23T10:40:10.132Z,71.40
2018-06-23T10:41:10.345Z,71.88
2018-06-23T10:42:10.604Z,71.59
2018-06-23T10:43:10.809Z,72.27
2018-06-23T10:44:11.042Z,71.69
2018-06-23T10:45:11.254Z,71.69
2018-06-23T10:46:11.508Z,71.98
2018-06-23T10:47:11.711Z,71.78
2018-06-23T10:48:11.936Z,72.45
2018-06-23T10:49:12.163Z,72.07
2018-06-23T10:50:12.413Z,72.55
2018-06-23T10:51:12.665Z,71.88
2018-06-23T10:52:12.838Z,72.07
2018-06-23T10:53:13.066Z,72.17
2018-06-23T10:54:13.286Z,73.03
2018-06-23T10:55:13.517Z,73.19
2018-06-23T10:56:13.744Z,73.86
2018-06-23T10:57:13.991Z,74.05
2018-06-23T10:58:14.207Z,73.76
2018-06-23T10:59:14.438Z,74.24
2018-06-23T11:00:14.669Z,74.27
2018-06-23T11:01:14.895Z,74.82
2018-06-23T11:02:15.123Z,74.33
2018-06-23T11:03:15.357Z,74.43
2018-06-23T11:04:15.589Z,73.95
2018-06-23T11:05:15.820Z,73.95
2018-06-23T11:06:16.050Z,74.24
2018-06-23T11:07:16.290Z,74.62
2018-06-23T11:08:16.513Z,74.91
2018-06-23T11:09:16.742Z,72.71
2018-06-23T11:10:16.972Z,73.03
2018-06-23T11:11:17.202Z,72.27
2018-06-23T11:12:17.431Z,71.11
2018-06-23T11:13:17.660Z,70.44
2018-06-23T11:14:17.895Z,69.58
2018-06-23T11:15:18.127Z,69.42
2018-06-23T11:16:18.353Z,69.33
2018-06-23T11:17:18.587Z,68.46
2018-06-23T11:18:18.816Z,68.21
2018-06-23T11:19:19.050Z,68.59
2018-06-23T11:20:19.286Z,67.44
2018-06-23T11:21:19.527Z,66.71
2018-06-23T11:22:19.760Z,66.90
2018-06-23T11:23:19.992Z,66.55
2018-06-23T11:24:20.291Z,65.01
2018-06-23T11:25:20.455Z,65.59
2018-06-23T11:26:20.683Z,64.82
2018-06-23T11:27:20.917Z,65.20
2018-06-23T11:28:21.143Z,64.72
2018-06-23T11:29:21.377Z,64.40
2018-06-23T11:30:21.604Z,65.36
2018-06-23T11:31:21.848Z,64.69
2018-06-23T11:32:22.062Z,64.89
2018-06-23T11:33:22.294Z,65.20
2018-06-23T11:34:22.521Z,64.50
2018-06-23T11:35:22.758Z,64.40
2018-06-23T11:36:22.992Z,64.53
2018-06-23T11:37:23.220Z,64.72
2018-06-23T11:38:23.454Z,64.72
2018-06-23T11:39:23.686Z,65.01
2018-06-23T11:40:23.915Z,66.93
2018-06-23T11:41:24.142Z,67.32
2018-06-23T11:42:24.389Z,68.37
2018-06-23T11:43:24.618Z,69.72
2018-06-23T11:44:24.852Z,69.40
2018-06-23T11:45:25.079Z,69.43
2018-06-23T11:46:25.309Z,71.45
2018-06-23T11:47:25.537Z,70.97
2018-06-23T11:48:25.769Z,69.43
2018-06-23T11:49:26.000Z,69.87
2018-06-23T11:50:26.233Z,70.26
2018-06-23T11:51:26.464Z,71.12
2018-06-23T11:52:26.906Z,71.31
2018-06-23T11:53:26.928Z,71.22
2018-06-23T11:54:27.159Z,71.61
2018-06-23T11:55:27.402Z,72.99
2018-06-23T11:56:27.628Z,72.12
2018-06-23T11:57:27.854Z,72.12
2018-06-23T11:58:28.085Z,72.02
2018-06-23T11:59:28.313Z,71.25
2018-06-23T12:00:28.554Z,72.34
2018-06-23T12:01:28.782Z,72.73
2018-06-23T12:02:29.015Z,70.52
2018-06-23T12:03:29.245Z,70.04
2018-06-23T12:04:29.478Z,70.37
2018-06-23T12:05:29.709Z,70.75
2018-06-23T12:06:29.940Z,69.92
2018-06-23T12:07:30.170Z,67.38
2018-06-23T12:08:30.401Z,65.08
2018-06-23T12:09:30.629Z,63.92
2018-06-23T12:10:30.865Z,64.53
2018-06-23T12:11:31.089Z,64.25
2018-06-23T12:12:31.323Z,63.86
2018-06-23T12:13:31.561Z,64.73
2018-06-23T12:14:31.781Z,62.80
2018-06-23T12:15:32.014Z,62.99
2018-06-23T12:16:32.244Z,63.48
2018-06-23T12:17:32.481Z,64.18
2018-06-23T12:18:32.712Z,62.64
2018-06-23T12:19:32.940Z,64.08
2018-06-23T12:20:33.175Z,64.56
2018-06-23T12:21:33.415Z,62.64
2018-06-23T12:22:33.635Z,62.57
2018-06-23T12:23:33.866Z,63.34
2018-06-23T12:24:34.097Z,61.04
2018-06-23T12:25:34.453Z,59.88
2018-06-23T12:26:34.565Z,58.24
2018-06-23T12:27:34.797Z,58.05
2018-06-23T12:28:35.034Z,59.33
2018-06-23T12:29:35.257Z,57.67
2018-06-23T12:30:35.493Z,57.50
2018-06-23T12:31:35.728Z,58.75
2018-06-23T12:32:35.962Z,58.44
2018-06-23T12:33:38.720Z,57.76
2018-06-23T12:34:36.459Z,56.12
2018-06-23T12:35:36.695Z,56.87
2018-06-23T12:36:36.936Z,55.83
2018-06-23T12:37:37.161Z,56.22
2018-06-23T12:38:37.400Z,57.37
2018-06-23T12:39:37.632Z,58.72
2018-06-23T12:40:37.863Z,58.53
2018-06-23T12:41:38.162Z,58.72
2018-06-23T12:42:38.331Z,57.28
2018-06-23T12:43:38.563Z,57.95
2018-06-23T12:44:38.798Z,57.98
2018-06-23T12:45:39.030Z,58.05
2018-06-23T12:46:39.268Z,57.57
2018-06-23T12:47:39.495Z,58.34
2018-06-23T12:48:39.729Z,57.95
2018-06-23T12:49:39.966Z,56.70
2018-06-23T12:50:40.206Z,56.38
2018-06-23T12:51:40.441Z,56.10
2018-06-23T12:52:40.674Z,55.43
2018-06-23T12:53:40.907Z,56.10
2018-06-23T12:54:41.142Z,57.54
2018-06-23T12:55:41.411Z,56.77